sensor_id;sensor_type;location;lat;lon;timestamp;pressure;altitude;pressure_sealevel;temperature;humidity
54910;BME280;63189;51.240;9.964;2023-12-20T00:01:16;97497.75;;;3.62;100.00
54910;BME280;63189;51.240;9.964;2023-12-20T00:03:41;97516.63;;;3.64;100.00
54910;BME280;63189;51.240;9.964;2023-12-20T00:06:07;97521.75;;;3.70;100.00
54910;BME280;63189;51.240;9.964;2023-12-20T00:08:32;97518.28;;;3.72;100.00
54910;BME280;63189;51.240;9.964;2023-12-20T00:10:58;97516.53;;;3.74;100.00
54910;BME280;63189;51.240;9.964;2023-12-20T00:13:23;97520.84;;;3.72;100.00
54910;BME280;63189;51.240;9.964;2023-12-20T00:15:48;97519.13;;;3.76;100.00
54910;BME280;63189;51.240;9.964;2023-12-20T00:18:14;97524.28;;;3.76;100.00
54910;BME280;63189;51.240;9.964;2023-12-20T00:20:39;97524.25;;;3.78;100.00
54910;BME280;63189;51.240;9.964;2023-12-20T00:23:04;97522.53;;;3.75;100.00
54910;BME280;63189;51.240;9.964;2023-12-20T00:25:30;97518.22;;;3.79;100.00
54910;BME280;63189;51.240;9.964;2023-12-20T00:27:55;97515.72;;;3.71;100.00
54910;BME280;63189;51.240;9.964;2023-12-20T00:30:21;97529.47;;;3.70;100.00
54910;BME280;63189;51.240;9.964;2023-12-20T00:32:46;97526.88;;;3.71;100.00
54910;BME280;63189;51.240;9.964;2023-12-20T00:35:16;97508.84;;;3.70;100.00
54910;BME280;63189;51.240;9.964;2023-12-20T00:37:42;97509.66;;;3.73;100.00
54910;BME280;63189;51.240;9.964;2023-12-20T00:40:08;97506.22;;;3.74;100.00
54910;BME280;63189;51.240;9.964;2023-12-20T00:42:34;97506.22;;;3.74;100.00
54910;BME280;63189;51.240;9.964;2023-12-20T00:44:59;97502.81;;;3.72;100.00
54910;BME280;63189;51.240;9.964;2023-12-20T00:47:25;97509.66;;;3.76;100.00
54910;BME280;63189;51.240;9.964;2023-12-20T00:49:51;97495.06;;;3.74;100.00
54910;BME280;63189;51.240;9.964;2023-12-20T00:52:16;97504.50;;;3.73;100.00
54910;BME280;63189;51.240;9.964;2023-12-20T00:54:45;97519.13;;;3.73;100.00
54910;BME280;63189;51.240;9.964;2023-12-20T00:57:10;97512.28;;;3.72;100.00
54910;BME280;63189;51.240;9.964;2023-12-20T00:59:36;97518.28;;;3.75;100.00
54910;BME280;63189;51.240;9.964;2023-12-20T01:02:01;97506.22;;;3.74;100.00
54910;BME280;63189;51.240;9.964;2023-12-20T01:04:27;97511.38;;;3.78;100.00
54910;BME280;63189;51.240;9.964;2023-12-20T01:06:52;97509.63;;;3.78;100.00
54910;BME280;63189;51.240;9.964;2023-12-20T01:09:18;97508.81;;;3.76;100.00
54910;BME280;63189;51.240;9.964;2023-12-20T01:11:44;97503.63;;;3.74;100.00
54910;BME280;63189;51.240;9.964;2023-12-20T01:14:09;97505.34;;;3.79;100.00
54910;BME280;63189;51.240;9.964;2023-12-20T01:16:34;97503.63;;;3.78;100.00
54910;BME280;63189;51.240;9.964;2023-12-20T01:19:00;97501.91;;;3.76;100.00
54910;BME280;63189;51.240;9.964;2023-12-20T01:21:25;97505.34;;;3.77;100.00
54910;BME280;63189;51.240;9.964;2023-12-20T01:23:51;97490.75;;;3.74;100.00
54910;BME280;63189;51.240;9.964;2023-12-20T01:26:16;97496.75;;;3.75;100.00
54910;BME280;63189;51.240;9.964;2023-12-20T01:28:42;97502.78;;;3.75;100.00
54910;BME280;63189;51.240;9.964;2023-12-20T01:31:08;97504.50;;;3.76;100.00
54910;BME280;63189;51.240;9.964;2023-12-20T01:33:33;97509.63;;;3.80;100.00
54910;BME280;63189;51.240;9.964;2023-12-20T01:35:58;97511.28;;;3.84;100.00
54910;BME280;63189;51.240;9.964;2023-12-20T01:38:24;97510.44;;;3.82;100.00
54910;BME280;63189;51.240;9.964;2023-12-20T01:40:49;97512.16;;;3.81;100.00
54910;BME280;63189;51.240;9.964;2023-12-20T01:43:14;97500.13;;;3.82;100.00
54910;BME280;63189;51.240;9.964;2023-12-20T01:45:40;97499.31;;;3.80;100.00
54910;BME280;63189;51.240;9.964;2023-12-20T01:48:07;97495.88;;;3.78;100.00
54910;BME280;63189;51.240;9.964;2023-12-20T01:50:35;97495.88;;;3.78;100.00
54910;BME280;63189;51.240;9.964;2023-12-20T01:53:02;97495.03;;;3.77;100.00
54910;BME280;63189;51.240;9.964;2023-12-20T01:55:31;97490.72;;;3.79;100.00
54910;BME280;63189;51.240;9.964;2023-12-20T01:57:58;97484.75;;;3.75;100.00
54910;BME280;63189;51.240;9.964;2023-12-20T02:00:25;97495.81;;;3.82;100.00
54910;BME280;63189;51.240;9.964;2023-12-20T02:02:53;97500.97;;;3.84;100.00
54910;BME280;63189;51.240;9.964;2023-12-20T02:05:20;97489.78;;;3.83;100.00
54910;BME280;63189;51.240;9.964;2023-12-20T02:07:46;97490.63;;;3.85;100.00
54910;BME280;63189;51.240;9.964;2023-12-20T02:10:12;97481.19;;;3.86;100.00
54910;BME280;63189;51.240;9.964;2023-12-20T02:12:38;97471.72;;;3.85;100.00
54910;BME280;63189;51.240;9.964;2023-12-20T02:15:04;97482.88;;;3.88;100.00
54910;BME280;63189;51.240;9.964;2023-12-20T02:17:29;97488.03;;;3.88;100.00
54910;BME280;63189;51.240;9.964;2023-12-20T02:19:56;97483.72;;;3.89;100.00
54910;BME280;63189;51.240;9.964;2023-12-20T02:22:21;97468.28;;;3.87;100.00
54910;BME280;63189;51.240;9.964;2023-12-20T02:24:47;97480.25;;;3.91;100.00
54910;BME280;63189;51.240;9.964;2023-12-20T02:27:12;97477.72;;;3.88;100.00
54910;BME280;63189;51.240;9.964;2023-12-20T02:29:38;97486.28;;;3.90;100.00
54910;BME280;63189;51.240;9.964;2023-12-20T02:32:03;97486.28;;;3.90;100.00
54910;BME280;63189;51.240;9.964;2023-12-20T02:34:29;97489.69;;;3.92;100.00
54910;BME280;63189;51.240;9.964;2023-12-20T02:36:54;97492.25;;;3.94;100.00
54910;BME280;63189;51.240;9.964;2023-12-20T02:39:21;97495.66;;;3.99;100.00
54910;BME280;63189;51.240;9.964;2023-12-20T02:41:47;97469.88;;;3.96;100.00
54910;BME280;63189;51.240;9.964;2023-12-20T02:44:12;97476.72;;;4.00;100.00
54910;BME280;63189;51.240;9.964;2023-12-20T02:46:37;97479.22;;;4.04;100.00
54910;BME280;63189;51.240;9.964;2023-12-20T02:49:03;97478.34;;;4.07;100.00
54910;BME280;63189;51.240;9.964;2023-12-20T02:51:28;97479.22;;;4.08;100.00
54910;BME280;63189;51.240;9.964;2023-12-20T02:53:53;97480.97;;;4.04;100.00
54910;BME280;63189;51.240;9.964;2023-12-20T02:56:19;97500.69;;;4.08;100.00
54910;BME280;63189;51.240;9.964;2023-12-20T02:58:44;97512.75;;;4.08;100.00
54910;BME280;63189;51.240;9.964;2023-12-20T03:01:09;97519.63;;;4.07;100.00
54910;BME280;63189;51.240;9.964;2023-12-20T03:03:35;97523.03;;;4.09;100.00
54910;BME280;63189;51.240;9.964;2023-12-20T03:06:00;97508.41;;;4.10;100.00
54910;BME280;63189;51.240;9.964;2023-12-20T03:08:26;97511.00;;;4.10;100.00
54910;BME280;63189;51.240;9.964;2023-12-20T03:10:51;97511.84;;;4.10;100.00
54910;BME280;63189;51.240;9.964;2023-12-20T03:13:16;97500.72;;;4.07;100.00
54910;BME280;63189;51.240;9.964;2023-12-20T03:15:42;97511.03;;;4.08;100.00
54910;BME280;63189;51.240;9.964;2023-12-20T03:18:07;97504.16;;;4.04;100.00
54910;BME280;63189;51.240;9.964;2023-12-20T03:20:33;97491.28;;;4.04;100.00
54910;BME280;63189;51.240;9.964;2023-12-20T03:23:00;97497.25;;;4.09;100.00
54910;BME280;63189;51.240;9.964;2023-12-20T03:25:26;97505.84;;;4.08;100.00
54910;BME280;63189;51.240;9.964;2023-12-20T03:27:52;97505.84;;;4.08;100.00
54910;BME280;63189;51.240;9.964;2023-12-20T03:30:17;97512.75;;;4.08;100.00
54910;BME280;63189;51.240;9.964;2023-12-20T03:32:43;97511.88;;;4.05;100.00
54910;BME280;63189;51.240;9.964;2023-12-20T03:35:08;97497.28;;;4.04;100.00
54910;BME280;63189;51.240;9.964;2023-12-20T03:37:34;97484.44;;;4.01;100.00
54910;BME280;63189;51.240;9.964;2023-12-20T03:39:59;97481.00;;;4.01;100.00
54910;BME280;63189;51.240;9.964;2023-12-20T03:42:25;97476.75;;;3.97;100.00
54910;BME280;63189;51.240;9.964;2023-12-20T03:44:50;97482.69;;;4.03;100.00
54910;BME280;63189;51.240;9.964;2023-12-20T03:47:15;97471.59;;;3.97;100.00
54910;BME280;63189;51.240;9.964;2023-12-20T03:49:41;97483.63;;;3.98;100.00
54910;BME280;63189;51.240;9.964;2023-12-20T03:52:06;97493.00;;;4.03;100.00
54910;BME280;63189;51.240;9.964;2023-12-20T03:54:32;97492.16;;;4.01;100.00
54910;BME280;63189;51.240;9.964;2023-12-20T03:56:58;97493.03;;;4.02;100.00
54910;BME280;63189;51.240;9.964;2023-12-20T03:59:23;97483.59;;;3.99;100.00
54910;BME280;63189;51.240;9.964;2023-12-20T04:01:48;97481.03;;;3.98;100.00
54910;BME280;63189;51.240;9.964;2023-12-20T04:04:14;97484.41;;;4.03;100.00
54910;BME280;63189;51.240;9.964;2023-12-20T04:06:39;97481.81;;;4.03;100.00
54910;BME280;63189;51.240;9.964;2023-12-20T04:09:05;97477.53;;;4.03;100.00
54910;BME280;63189;51.240;9.964;2023-12-20T04:11:30;97486.13;;;4.02;100.00
54910;BME280;63189;51.240;9.964;2023-12-20T04:13:55;97477.56;;;4.00;100.00
54910;BME280;63189;51.240;9.964;2023-12-20T04:16:21;97480.13;;;4.02;100.00
54910;BME280;63189;51.240;9.964;2023-12-20T04:18:46;97489.63;;;3.98;100.00
54910;BME280;63189;51.240;9.964;2023-12-20T04:21:11;97490.50;;;3.96;100.00
54910;BME280;63189;51.240;9.964;2023-12-20T04:23:37;97498.22;;;3.99;100.00
54910;BME280;63189;51.240;9.964;2023-12-20T04:26:05;97504.25;;;3.98;100.00
54910;BME280;63189;51.240;9.964;2023-12-20T04:28:31;97500.81;;;3.99;100.00
54910;BME280;63189;51.240;9.964;2023-12-20T04:31:12;97505.06;;;4.01;100.00
54910;BME280;63189;51.240;9.964;2023-12-20T04:33:38;97506.72;;;4.05;100.00
54910;BME280;63189;51.240;9.964;2023-12-20T04:36:06;97510.22;;;4.01;100.00
54910;BME280;63189;51.240;9.964;2023-12-20T04:38:31;97493.09;;;3.97;100.00
54910;BME280;63189;51.240;9.964;2023-12-20T04:40:57;97494.00;;;3.92;100.00
54910;BME280;63189;51.240;9.964;2023-12-20T04:43:22;97470.75;;;3.93;100.00
54910;BME280;63189;51.240;9.964;2023-12-20T04:45:47;97491.38;;;3.98;100.00
54910;BME280;63189;51.240;9.964;2023-12-20T04:48:13;97479.34;;;3.95;100.00
54910;BME280;63189;51.240;9.964;2023-12-20T04:50:38;97492.25;;;3.97;100.00
54910;BME280;63189;51.240;9.964;2023-12-20T04:53:04;97484.53;;;3.92;100.00
54910;BME280;63189;51.240;9.964;2023-12-20T04:55:29;97482.88;;;3.88;100.00
54910;BME280;63189;51.240;9.964;2023-12-20T04:57:55;97467.44;;;3.84;100.00
54910;BME280;63189;51.240;9.964;2023-12-20T05:00:23;97477.84;;;3.78;100.00
54910;BME280;63189;51.240;9.964;2023-12-20T05:02:48;97459.94;;;3.64;100.00
54910;BME280;63189;51.240;9.964;2023-12-20T05:05:16;97496.69;;;3.81;100.00
54910;BME280;63189;51.240;9.964;2023-12-20T05:07:43;97479.72;;;3.65;100.00
54910;BME280;63189;51.240;9.964;2023-12-20T05:10:09;97485.72;;;3.64;100.00
54910;BME280;63189;51.240;9.964;2023-12-20T05:12:34;97508.81;;;3.76;100.00
54910;BME280;63189;51.240;9.964;2023-12-20T05:14:59;97500.22;;;3.72;100.00
54910;BME280;63189;51.240;9.964;2023-12-20T05:17:25;97495.16;;;3.66;100.00
54910;BME280;63189;51.240;9.964;2023-12-20T05:19:50;97496.88;;;3.67;100.00
54910;BME280;63189;51.240;9.964;2023-12-20T05:22:16;97497.63;;;3.74;100.00
54910;BME280;63189;51.240;9.964;2023-12-20T05:24:45;97499.44;;;3.67;100.00
54910;BME280;63189;51.240;9.964;2023-12-20T05:27:10;97487.44;;;3.65;100.00
54910;BME280;63189;51.240;9.964;2023-12-20T05:29:36;97494.34;;;3.61;100.00
54910;BME280;63189;51.240;9.964;2023-12-20T05:32:02;97496.91;;;3.61;100.00
54910;BME280;63189;51.240;9.964;2023-12-20T05:34:29;97497.81;;;3.57;100.00
54910;BME280;63189;51.240;9.964;2023-12-20T05:36:55;97497.81;;;3.57;100.00
54910;BME280;63189;51.240;9.964;2023-12-20T05:39:20;97502.94;;;3.60;100.00
54910;BME280;63189;51.240;9.964;2023-12-20T05:41:46;97499.56;;;3.52;100.00
54910;BME280;63189;51.240;9.964;2023-12-20T05:44:12;97490.97;;;3.53;100.00
54910;BME280;63189;51.240;9.964;2023-12-20T05:46:37;97505.59;;;3.53;100.00
54910;BME280;63189;51.240;9.964;2023-12-20T05:49:06;97499.63;;;3.47;100.00
54910;BME280;63189;51.240;9.964;2023-12-20T05:51:32;97504.00;;;3.39;100.00
54910;BME280;63189;51.240;9.964;2023-12-20T05:53:58;97497.16;;;3.38;100.00
54910;BME280;63189;51.240;9.964;2023-12-20T05:56:23;97499.75;;;3.37;100.00
54910;BME280;63189;51.240;9.964;2023-12-20T05:58:56;97498.91;;;3.32;100.00
54910;BME280;63189;51.240;9.964;2023-12-20T06:01:24;97502.31;;;3.37;100.00
54910;BME280;63189;51.240;9.964;2023-12-20T06:03:49;97506.63;;;3.36;100.00
54910;BME280;63189;51.240;9.964;2023-12-20T06:06:15;97504.91;;;3.37;100.00
54910;BME280;63189;51.240;9.964;2023-12-20T06:08:40;97522.03;;;3.39;100.00
54910;BME280;63189;51.240;9.964;2023-12-20T06:11:06;97504.94;;;3.31;100.00
54910;BME280;63189;51.240;9.964;2023-12-20T06:13:31;97520.38;;;3.32;100.00
54910;BME280;63189;51.240;9.964;2023-12-20T06:15:57;97528.13;;;3.31;100.00
54910;BME280;63189;51.240;9.964;2023-12-20T06:18:22;97533.28;;;3.31;100.00
54910;BME280;63189;51.240;9.964;2023-12-20T06:20:48;97518.69;;;3.30;100.00
54910;BME280;63189;51.240;9.964;2023-12-20T06:23:13;97515.28;;;3.28;100.00
54910;BME280;63189;51.240;9.964;2023-12-20T06:25:39;97518.66;;;3.33;100.00
54910;BME280;63189;51.240;9.964;2023-12-20T06:28:25;97516.13;;;3.30;100.00
54910;BME280;63189;51.240;9.964;2023-12-20T06:30:53;97520.41;;;3.31;100.00
54910;BME280;63189;51.240;9.964;2023-12-20T06:33:20;97517.78;;;3.35;100.00
54910;BME280;63189;51.240;9.964;2023-12-20T06:35:47;97522.06;;;3.38;100.00
54910;BME280;63189;51.240;9.964;2023-12-20T06:38:12;97532.41;;;3.32;100.00
54910;BME280;63189;51.240;9.964;2023-12-20T06:40:38;97521.25;;;3.30;100.00
54910;BME280;63189;51.240;9.964;2023-12-20T06:43:03;97520.38;;;3.32;100.00
54910;BME280;63189;51.240;9.964;2023-12-20T06:45:28;97523.00;;;3.28;100.00
54910;BME280;63189;51.240;9.964;2023-12-20T06:47:54;97517.88;;;3.26;100.00
54910;BME280;63189;51.240;9.964;2023-12-20T06:50:20;97503.28;;;3.25;100.00
54910;BME280;63189;51.240;9.964;2023-12-20T06:52:45;97508.38;;;3.30;100.00
54910;BME280;63189;51.240;9.964;2023-12-20T06:55:11;97527.25;;;3.35;100.00
54910;BME280;63189;51.240;9.964;2023-12-20T06:57:36;97514.34;;;3.33;100.00
54910;BME280;63189;51.240;9.964;2023-12-20T07:00:02;97513.50;;;3.36;100.00
54910;BME280;63189;51.240;9.964;2023-12-20T07:02:28;97519.50;;;3.36;100.00
54910;BME280;63189;51.240;9.964;2023-12-20T07:04:55;97520.31;;;3.40;100.00
54910;BME280;63189;51.240;9.964;2023-12-20T07:07:23;97521.19;;;3.39;100.00
54910;BME280;63189;51.240;9.964;2023-12-20T07:09:51;97515.13;;;3.46;100.00
54910;BME280;63189;51.240;9.964;2023-12-20T07:12:16;97531.41;;;3.50;100.00
54910;BME280;63189;51.240;9.964;2023-12-20T07:14:44;97522.00;;;3.44;100.00
54910;BME280;63189;51.240;9.964;2023-12-20T07:17:09;97504.81;;;3.43;100.00
54910;BME280;63189;51.240;9.964;2023-12-20T07:19:37;97516.88;;;3.41;100.00
54910;BME280;63189;51.240;9.964;2023-12-20T07:22:04;97511.66;;;3.47;100.00
54910;BME280;63189;51.240;9.964;2023-12-20T07:24:29;97524.56;;;3.47;100.00
54910;BME280;63189;51.240;9.964;2023-12-20T07:26:55;97528.09;;;3.37;100.00
54910;BME280;63189;51.240;9.964;2023-12-20T07:29:20;97532.34;;;3.41;100.00
54910;BME280;63189;51.240;9.964;2023-12-20T07:31:45;97526.34;;;3.37;100.00
54910;BME280;63189;51.240;9.964;2023-12-20T07:34:11;97525.53;;;3.34;100.00
54910;BME280;63189;51.240;9.964;2023-12-20T07:36:36;97541.00;;;3.34;100.00
54910;BME280;63189;51.240;9.964;2023-12-20T07:39:02;97544.41;;;3.33;100.00
54910;BME280;63189;51.240;9.964;2023-12-20T07:41:28;97540.13;;;3.35;100.00
54910;BME280;63189;51.240;9.964;2023-12-20T07:43:53;97539.25;;;3.36;100.00
54910;BME280;63189;51.240;9.964;2023-12-20T07:46:20;97532.38;;;3.38;100.00
54910;BME280;63189;51.240;9.964;2023-12-20T07:48:47;97534.09;;;3.37;100.00
54910;BME280;63189;51.240;9.964;2023-12-20T07:51:13;97534.13;;;3.33;100.00
54910;BME280;63189;51.240;9.964;2023-12-20T07:53:38;97543.50;;;3.40;100.00
54910;BME280;63189;51.240;9.964;2023-12-20T07:56:17;97541.78;;;3.42;100.00
54910;BME280;63189;51.240;9.964;2023-12-20T07:58:43;97564.94;;;3.43;100.00
54910;BME280;63189;51.240;9.964;2023-12-20T08:01:09;97573.53;;;3.45;100.00
54910;BME280;63189;51.240;9.964;2023-12-20T08:03:35;97566.66;;;3.43;100.00
54910;BME280;63189;51.240;9.964;2023-12-20T08:06:00;97555.50;;;3.42;100.00
54910;BME280;63189;51.240;9.964;2023-12-20T08:08:26;97573.53;;;3.42;100.00
54910;BME280;63189;51.240;9.964;2023-12-20T08:10:51;97569.25;;;3.41;100.00
54910;BME280;63189;51.240;9.964;2023-12-20T08:13:16;97578.72;;;3.44;100.00
54910;BME280;63189;51.240;9.964;2023-12-20T08:15:42;97558.94;;;3.46;100.00
54910;BME280;63189;51.240;9.964;2023-12-20T08:18:07;97563.19;;;3.50;100.00
54910;BME280;63189;51.240;9.964;2023-12-20T08:20:33;97558.81;;;3.58;100.00
54910;BME280;63189;51.240;9.964;2023-12-20T08:22:59;97562.22;;;3.62;100.00
54910;BME280;63189;51.240;9.964;2023-12-20T08:25:24;97565.63;;;3.62;100.00
54910;BME280;63189;51.240;9.964;2023-12-20T08:27:50;97554.53;;;3.57;100.00
54910;BME280;63189;51.240;9.964;2023-12-20T08:30:15;97567.41;;;3.59;100.00
54910;BME280;63189;51.240;9.964;2023-12-20T08:32:42;97563.09;;;3.59;100.00
54910;BME280;63189;51.240;9.964;2023-12-20T08:35:08;97580.22;;;3.63;100.00
54910;BME280;63189;51.240;9.964;2023-12-20T08:37:34;97563.91;;;3.63;100.00
54910;BME280;63189;51.240;9.964;2023-12-20T08:39:59;97563.91;;;3.64;100.00
54910;BME280;63189;51.240;9.964;2023-12-20T08:42:24;97552.75;;;3.62;100.00
54910;BME280;63189;51.240;9.964;2023-12-20T08:44:56;97548.50;;;3.58;100.00
54910;BME280;63189;51.240;9.964;2023-12-20T08:47:21;97556.19;;;3.61;100.00
54910;BME280;63189;51.240;9.964;2023-12-20T08:49:46;97563.91;;;3.64;100.00
54910;BME280;63189;51.240;9.964;2023-12-20T08:52:12;97562.25;;;3.57;100.00
54910;BME280;63189;51.240;9.964;2023-12-20T08:54:37;97562.25;;;3.57;100.00
54910;BME280;63189;51.240;9.964;2023-12-20T08:57:02;97553.63;;;3.60;100.00
54910;BME280;63189;51.240;9.964;2023-12-20T08:59:28;97566.47;;;3.64;100.00
54910;BME280;63189;51.240;9.964;2023-12-20T09:01:53;97578.53;;;3.65;100.00
54910;BME280;63189;51.240;9.964;2023-12-20T09:04:20;97561.34;;;3.63;100.00
54910;BME280;63189;51.240;9.964;2023-12-20T09:06:45;97563.84;;;3.70;100.00
54910;BME280;63189;51.240;9.964;2023-12-20T09:09:11;97573.31;;;3.68;100.00
54910;BME280;63189;51.240;9.964;2023-12-20T09:11:39;97554.47;;;3.63;100.00
54910;BME280;63189;51.240;9.964;2023-12-20T09:14:06;97563.91;;;3.64;100.00
54910;BME280;63189;51.240;9.964;2023-12-20T09:16:32;97551.13;;;3.52;100.00
54910;BME280;63189;51.240;9.964;2023-12-20T09:19:00;97563.91;;;3.66;100.00
54910;BME280;63189;51.240;9.964;2023-12-20T09:21:25;97568.06;;;3.79;100.00
54910;BME280;63189;51.240;9.964;2023-12-20T09:23:51;97561.00;;;3.95;100.00
54910;BME280;63189;51.240;9.964;2023-12-20T09:26:17;97563.56;;;3.99;100.00
54910;BME280;63189;51.240;9.964;2023-12-20T09:28:43;97584.97;;;4.08;100.00
54910;BME280;63189;51.240;9.964;2023-12-20T09:31:09;97567.91;;;3.94;100.00
54910;BME280;63189;51.240;9.964;2023-12-20T09:33:34;97572.97;;;4.02;100.00
54910;BME280;63189;51.240;9.964;2023-12-20T09:36:00;97570.44;;;4.00;100.00
54910;BME280;63189;51.240;9.964;2023-12-20T09:38:33;97542.31;;;3.76;100.00
54910;BME280;63189;51.240;9.964;2023-12-20T09:40:58;97553.38;;;3.84;100.00
54910;BME280;63189;51.240;9.964;2023-12-20T09:43:32;97569.63;;;3.94;100.00
54910;BME280;63189;51.240;9.964;2023-12-20T09:46:03;97560.16;;;3.94;100.00
54910;BME280;63189;51.240;9.964;2023-12-20T09:48:35;97577.19;;;4.11;100.00
54910;BME280;63189;51.240;9.964;2023-12-20T09:51:01;97554.94;;;4.00;100.00
54910;BME280;63189;51.240;9.964;2023-12-20T09:53:28;97571.22;;;4.04;100.00
54910;BME280;63189;51.240;9.964;2023-12-20T09:55:58;97555.84;;;3.98;100.00
54910;BME280;63189;51.240;9.964;2023-12-20T09:58:25;97524.84;;;4.01;100.00
54910;BME280;63189;51.240;9.964;2023-12-20T10:00:52;97540.94;;;4.21;100.00
54910;BME280;63189;51.240;9.964;2023-12-20T10:03:21;97545.25;;;4.22;100.00
54910;BME280;63189;51.240;9.964;2023-12-20T10:05:48;97537.47;;;4.24;100.00
54910;BME280;63189;51.240;9.964;2023-12-20T10:08:17;97550.28;;;4.31;100.00
54910;BME280;63189;51.240;9.964;2023-12-20T10:10:42;97547.75;;;4.27;100.00
54910;BME280;63189;51.240;9.964;2023-12-20T10:13:11;97553.84;;;4.23;100.00
54910;BME280;63189;51.240;9.964;2023-12-20T10:15:37;97528.94;;;4.20;100.00
54910;BME280;63189;51.240;9.964;2023-12-20T10:18:05;97532.34;;;4.22;100.00
54910;BME280;63189;51.240;9.964;2023-12-20T10:20:31;97540.22;;;4.10;100.00
54910;BME280;63189;51.240;9.964;2023-12-20T10:22:57;97536.81;;;4.08;100.00
54910;BME280;63189;51.240;9.964;2023-12-20T10:25:23;97531.66;;;4.08;100.00
54910;BME280;63189;51.240;9.964;2023-12-20T10:27:49;97507.81;;;3.88;100.00
54910;BME280;63189;51.240;9.964;2023-12-20T10:30:15;97519.66;;;4.04;100.00
54910;BME280;63189;51.240;9.964;2023-12-20T10:32:41;97516.22;;;4.02;100.00
54910;BME280;63189;51.240;9.964;2023-12-20T10:35:07;97523.91;;;4.08;100.00
54910;BME280;63189;51.240;9.964;2023-12-20T10:37:39;97517.03;;;4.09;100.00
54910;BME280;63189;51.240;9.964;2023-12-20T10:40:05;97511.91;;;4.04;100.00
54910;BME280;63189;51.240;9.964;2023-12-20T10:42:31;97504.97;;;4.09;100.00
54910;BME280;63189;51.240;9.964;2023-12-20T10:44:59;97508.41;;;4.11;100.00
54910;BME280;63189;51.240;9.964;2023-12-20T10:47:26;97502.28;;;4.18;100.00
54910;BME280;63189;51.240;9.964;2023-12-20T10:49:54;97506.47;;;4.27;100.00
54910;BME280;63189;51.240;9.964;2023-12-20T10:52:23;97505.50;;;4.35;100.00
54910;BME280;63189;51.240;9.964;2023-12-20T10:54:48;97496.84;;;4.40;100.00
54910;BME280;63189;51.240;9.964;2023-12-20T10:57:15;97497.56;;;4.51;100.00
54910;BME280;63189;51.240;9.964;2023-12-20T10:59:42;97489.44;;;4.75;100.00
54910;BME280;63189;51.240;9.964;2023-12-20T11:02:10;97488.41;;;4.87;100.00
54910;BME280;63189;51.240;9.964;2023-12-20T11:07:19;97482.38;;;4.88;100.00
54910;BME280;63189;51.240;9.964;2023-12-20T11:09:57;97486.81;;;4.78;100.00
54910;BME280;63189;51.240;9.964;2023-12-20T11:14:59;97475.66;;;4.76;100.00
54910;BME280;63189;51.240;9.964;2023-12-20T11:17:29;97472.28;;;4.73;100.00
54910;BME280;63189;51.240;9.964;2023-12-20T11:22:22;97462.03;;;4.67;100.00
54910;BME280;63189;51.240;9.964;2023-12-20T11:24:50;97460.31;;;4.67;100.00
54910;BME280;63189;51.240;9.964;2023-12-20T11:27:15;97478.34;;;4.69;100.00
54910;BME280;63189;51.240;9.964;2023-12-20T11:29:41;97455.22;;;4.62;100.00
54910;BME280;63189;51.240;9.964;2023-12-20T11:35:00;97458.66;;;4.63;100.00
54910;BME280;63189;51.240;9.964;2023-12-20T11:37:31;97452.72;;;4.56;100.00
54910;BME280;63189;51.240;9.964;2023-12-20T11:40:11;97433.94;;;4.47;100.00
54910;BME280;63189;51.240;9.964;2023-12-20T11:42:42;97455.38;;;4.52;100.00
54910;BME280;63189;51.240;9.964;2023-12-20T11:45:09;97439.00;;;4.53;100.00
54910;BME280;63189;51.240;9.964;2023-12-20T11:47:35;97441.69;;;4.48;100.00
54910;BME280;63189;51.240;9.964;2023-12-20T11:50:01;97439.03;;;4.51;100.00
54910;BME280;63189;51.240;9.964;2023-12-20T11:52:29;97445.09;;;4.47;100.00
54910;BME280;63189;51.240;9.964;2023-12-20T11:54:54;97448.47;;;4.54;100.00
54910;BME280;63189;51.240;9.964;2023-12-20T11:57:20;97448.53;;;4.49;100.00
54910;BME280;63189;51.240;9.964;2023-12-20T11:59:45;97439.94;;;4.47;100.00
54910;BME280;63189;51.240;9.964;2023-12-20T12:02:11;97442.56;;;4.44;100.00
54910;BME280;63189;51.240;9.964;2023-12-20T12:04:41;97436.63;;;4.41;100.00
54910;BME280;63189;51.240;9.964;2023-12-20T12:07:06;97443.50;;;4.40;100.00
54910;BME280;63189;51.240;9.964;2023-12-20T12:09:31;97433.31;;;4.31;100.00
54910;BME280;63189;51.240;9.964;2023-12-20T12:11:57;97404.25;;;4.18;100.00
54910;BME280;63189;51.240;9.964;2023-12-20T12:14:22;97420.41;;;4.31;100.00
54910;BME280;63189;51.240;9.964;2023-12-20T12:16:48;97419.69;;;4.21;100.00
54910;BME280;63189;51.240;9.964;2023-12-20T12:19:24;97406.72;;;4.24;100.00
54910;BME280;63189;51.240;9.964;2023-12-20T12:21:51;97394.72;;;4.23;100.00
54910;BME280;63189;51.240;9.964;2023-12-20T12:24:20;97388.78;;;4.15;100.00
54910;BME280;63189;51.240;9.964;2023-12-20T12:26:50;97382.75;;;4.16;100.00
54910;BME280;63189;51.240;9.964;2023-12-20T12:29:15;97363.88;;;4.14;100.00
54910;BME280;63189;51.240;9.964;2023-12-20T12:31:41;97385.97;;;4.32;100.00
54910;BME280;63189;51.240;9.964;2023-12-20T12:34:06;97374.00;;;4.26;100.00
54910;BME280;63189;51.240;9.964;2023-12-20T12:36:34;97370.53;;;4.30;100.00
54910;BME280;63189;51.240;9.964;2023-12-20T12:39:02;97370.56;;;4.29;100.00
54910;BME280;63189;51.240;9.964;2023-12-20T12:41:29;97369.66;;;4.31;100.00
54910;BME280;63189;51.240;9.964;2023-12-20T12:43:54;97360.19;;;4.30;100.00
54910;BME280;63189;51.240;9.964;2023-12-20T12:46:20;97349.19;;;4.19;100.00
54910;BME280;63189;51.240;9.964;2023-12-20T12:48:45;97349.19;;;4.19;100.00
54910;BME280;63189;51.240;9.964;2023-12-20T12:51:11;97335.56;;;4.10;100.00
54910;BME280;63189;51.240;9.964;2023-12-20T12:53:38;97332.88;;;4.16;100.00
54910;BME280;63189;51.240;9.964;2023-12-20T12:56:04;97339.78;;;4.15;100.00
54910;BME280;63189;51.240;9.964;2023-12-20T12:58:29;97326.13;;;4.10;100.00
54910;BME280;63189;51.240;9.964;2023-12-20T13:00:55;97334.63;;;4.15;100.00
54910;BME280;63189;51.240;9.964;2023-12-20T13:03:21;97326.13;;;4.09;100.00
54910;BME280;63189;51.240;9.964;2023-12-20T13:05:46;97345.78;;;4.17;100.00